Minerva Zenia — SYNB — position and weather

sailwx.info

Track history (hours):
 
Tides and Currents Weather Stations Pressure Air Temp Water Temp Dewpoint Dewpoint Depression Visibility Wind Speed Wind Dir Waves Ship Positions

Minerva Zenia

Last reported at 2014-Dec-18 03:33 UTC. Time now 2014-Dec-22 14:57 UTC.
Position N 58°20' E 005°25'.

Length 248 m; draft 8.5 m.

Type: Ship. MMSI: 240014000.

Date/timePositionNaut miles runAvg speedWind from/ knotsBaromVisibWave heightAir tempDewpointWater temp
2014-Dec-18 03:33N 58°20' E 005°25'1111.2
2014-Dec-18 02:33N 58°13' E 005°41'1211.4
2014-Dec-18 01:32N 58°06' E 005°58'126 9.6
2014-Dec-17 12:27N 57°52' E 009°54'1010.2
2014-Dec-17 11:30N 57°52' E 010°12'1010.1
2014-Dec-17 10:31N 57°51' E 010°31'1010.0
2014-Dec-17 09:33N 57°48' E 010°48'1111.4
2014-Dec-17 08:33N 57°37' E 010°56'13 3.0
2014-Dec-17 04:19N 57°25' E 010°47'0 0.1
2014-Dec-17 03:31N 57°25' E 010°47'0 0.0
2014-Dec-15 19:22N 57°25' E 010°47'0 0.1
2014-Dec-15 18:28N 57°25' E 010°47'0 0.0
2014-Dec-15 16:33N 57°25' E 010°47'1 0.7
2014-Dec-15 15:31N 57°26' E 010°47'0 0.5
2014-Dec-15 14:33N 57°26' E 010°48'1 1.1
2014-Dec-15 13:33N 57°25' E 010°47'3 2.7
2014-Dec-15 12:31N 57°28' E 010°45'4 1.9
2014-Dec-15 10:28N 57°31' E 010°41'0 0.0
2014-Dec-15 09:31N 57°31' E 010°41'0 0.1
2014-Dec-15 08:31N 57°31' E 010°41'0 0.0
2014-Dec-15 07:31N 57°31' E 010°41'0 0.1
2014-Dec-15 06:31N 57°31' E 010°41'0 0.0
2014-Dec-13 16:28N 57°31' E 010°41'0 0.0
2014-Dec-13 12:25N 57°31' E 010°42'0 0.0
2014-Dec-13 09:28N 57°31' E 010°42'0 0.0
2014-Dec-13 08:19N 57°31' E 010°42'0 0.0
2014-Dec-13 02:16N 57°31' E 010°41'0 0.0
2014-Dec-12 22:10N 57°31' E 010°42'0 0.1
2014-Dec-12 21:10N 57°31' E 010°42'0 0.0
2014-Dec-12 15:13N 57°31' E 010°41'0 0.0
2014-Dec-12 14:33N 57°31' E 010°41'0 0.0
2014-Dec-12 13:32N 57°31' E 010°41'0 0.0
2014-Dec-12 12:33N 57°31' E 010°41'0 0.0
2014-Dec-12 02:32N 57°31' E 010°41'0 0.0
2014-Dec-12 01:33N 57°31' E 010°41'0 0.0
2014-Dec-12 00:32N 57°31' E 010°41'0 0.0
2014-Dec-11 23:32N 57°31' E 010°41'0 0.0
2014-Dec-11 22:10N 57°31' E 010°41'0 0.0
2014-Dec-11 20:32N 57°31' E 010°41'0 0.0
2014-Dec-11 19:26N 57°31' E 010°41'0 0.0
2014-Dec-11 18:21N 57°31' E 010°41'0 0.0
2014-Dec-11 17:26N 57°31' E 010°41'0 0.0
2014-Dec-11 15:19N 57°31' E 010°41'0 0.0
2014-Dec-11 14:08N 57°31' E 010°41'0 0.0
2014-Dec-11 12:28N 57°31' E 010°41'0 0.0
2014-Dec-11 11:18N 57°31' E 010°41'0 0.0
2014-Dec-10 19:23N 57°31' E 010°41'1 0.6
2014-Dec-10 18:24N 57°32' E 010°41'10 2.0
2014-Dec-10 13:30N 57°41' E 010°45'0 0.0
2014-Dec-10 12:30N 57°41' E 010°45'0 0.1
2014-Dec-10 09:27N 57°42' E 010°45'1 0.1
2014-Dec-09 17:06N 57°41' E 010°44'0 0.0
2014-Dec-09 16:30N 57°41' E 010°44'0 0.0
2014-Dec-09 15:30N 57°41' E 010°44'0 0.0
2014-Dec-09 13:06N 57°41' E 010°44'0 0.0
2014-Dec-09 12:30N 57°41' E 010°44'0 0.0
2014-Dec-09 11:21N 57°41' E 010°44'0 0.0
2014-Dec-09 07:21N 57°41' E 010°44'0 0.0
2014-Dec-09 06:33N 57°41' E 010°44'0 0.0
2014-Dec-09 05:18N 57°41' E 010°44'0 0.0
2014-Dec-09 04:30N 57°41' E 010°44'0 0.0
2014-Dec-09 03:30N 57°41' E 010°44'0 0.0
2014-Dec-09 02:06N 57°41' E 010°44'0 0.0
2014-Dec-09 01:21N 57°41' E 010°44'0 0.0
2014-Dec-09 00:33N 57°41' E 010°44'0 0.0
2014-Dec-08 23:33N 57°41' E 010°44'0 0.0
2014-Dec-08 22:33N 57°41' E 010°44'0 0.0
2014-Dec-08 21:33N 57°41' E 010°44'0 0.0
2014-Dec-08 20:24N 57°41' E 010°44'0 0.0
2014-Dec-08 17:33N 57°41' E 010°44'0 0.0
2014-Dec-08 14:27N 57°41' E 010°44'0 0.0
2014-Dec-08 12:30N 57°41' E 010°44'0 0.0
2014-Dec-08 11:33N 57°41' E 010°44'0 0.0
2014-Dec-08 10:30N 57°41' E 010°44'0 0.1
2014-Dec-08 09:15N 57°41' E 010°44'0 0.0
2014-Dec-08 08:30N 57°41' E 010°44'0 0.1
2014-Dec-08 05:33N 57°40' E 010°44'0 0.0
2014-Dec-08 04:33N 57°40' E 010°44'  
Track history (hours):
 
Tides and Currents Weather Stations Pressure Air Temp Water Temp Dewpoint Dewpoint Depression Visibility Wind Speed Wind Dir Waves Ship Positions

Minerva Zenia

Last reported at 2014-Dec-18 03:33 UTC. Time now 2014-Dec-22 14:57 UTC.
Position N 58°20' E 005°25'.

Length 248 m; draft 8.5 m.

Type: Ship. MMSI: 240014000.

Date/timePositionNaut miles runAvg speedWind from/ knotsBaromVisibWave heightAir tempDewpointWater temp
2014-Dec-18 03:33N 58°20' E 005°25'1111.2
2014-Dec-18 02:33N 58°13' E 005°41'1211.4
2014-Dec-18 01:32N 58°06' E 005°58'126 9.6
2014-Dec-17 12:27N 57°52' E 009°54'1010.2
2014-Dec-17 11:30N 57°52' E 010°12'1010.1
2014-Dec-17 10:31N 57°51' E 010°31'1010.0
2014-Dec-17 09:33N 57°48' E 010°48'1111.4
2014-Dec-17 08:33N 57°37' E 010°56'13 3.0
2014-Dec-17 04:19N 57°25' E 010°47'0 0.1
2014-Dec-17 03:31N 57°25' E 010°47'0 0.0
2014-Dec-15 19:22N 57°25' E 010°47'0 0.1
2014-Dec-15 18:28N 57°25' E 010°47'0 0.0
2014-Dec-15 16:33N 57°25' E 010°47'1 0.7
2014-Dec-15 15:31N 57°26' E 010°47'0 0.5
2014-Dec-15 14:33N 57°26' E 010°48'1 1.1
2014-Dec-15 13:33N 57°25' E 010°47'3 2.7
2014-Dec-15 12:31N 57°28' E 010°45'4 1.9
2014-Dec-15 10:28N 57°31' E 010°41'0 0.0
2014-Dec-15 09:31N 57°31' E 010°41'0 0.1
2014-Dec-15 08:31N 57°31' E 010°41'0 0.0
2014-Dec-15 07:31N 57°31' E 010°41'0 0.1
2014-Dec-15 06:31N 57°31' E 010°41'0 0.0
2014-Dec-13 16:28N 57°31' E 010°41'0 0.0
2014-Dec-13 12:25N 57°31' E 010°42'0 0.0
2014-Dec-13 09:28N 57°31' E 010°42'0 0.0
2014-Dec-13 08:19N 57°31' E 010°42'0 0.0
2014-Dec-13 02:16N 57°31' E 010°41'0 0.0
2014-Dec-12 22:10N 57°31' E 010°42'0 0.1
2014-Dec-12 21:10N 57°31' E 010°42'0 0.0
2014-Dec-12 15:13N 57°31' E 010°41'0 0.0
2014-Dec-12 14:33N 57°31' E 010°41'0 0.0
2014-Dec-12 13:32N 57°31' E 010°41'0 0.0
2014-Dec-12 12:33N 57°31' E 010°41'0 0.0
2014-Dec-12 02:32N 57°31' E 010°41'0 0.0
2014-Dec-12 01:33N 57°31' E 010°41'0 0.0
2014-Dec-12 00:32N 57°31' E 010°41'0 0.0
2014-Dec-11 23:32N 57°31' E 010°41'0 0.0
2014-Dec-11 22:10N 57°31' E 010°41'0 0.0
2014-Dec-11 20:32N 57°31' E 010°41'0 0.0
2014-Dec-11 19:26N 57°31' E 010°41'0 0.0
2014-Dec-11 18:21N 57°31' E 010°41'0 0.0
2014-Dec-11 17:26N 57°31' E 010°41'0 0.0
2014-Dec-11 15:19N 57°31' E 010°41'0 0.0
2014-Dec-11 14:08N 57°31' E 010°41'0 0.0
2014-Dec-11 12:28N 57°31' E 010°41'0 0.0
2014-Dec-11 11:18N 57°31' E 010°41'0 0.0
2014-Dec-10 19:23N 57°31' E 010°41'1 0.6
2014-Dec-10 18:24N 57°32' E 010°41'10 2.0
2014-Dec-10 13:30N 57°41' E 010°45'0 0.0
2014-Dec-10 12:30N 57°41' E 010°45'0 0.1
2014-Dec-10 09:27N 57°42' E 010°45'1 0.1
2014-Dec-09 17:06N 57°41' E 010°44'0 0.0
2014-Dec-09 16:30N 57°41' E 010°44'0 0.0
2014-Dec-09 15:30N 57°41' E 010°44'0 0.0
2014-Dec-09 13:06N 57°41' E 010°44'0 0.0
2014-Dec-09 12:30N 57°41' E 010°44'0 0.0
2014-Dec-09 11:21N 57°41' E 010°44'0 0.0
2014-Dec-09 07:21N 57°41' E 010°44'0 0.0
2014-Dec-09 06:33N 57°41' E 010°44'0 0.0
2014-Dec-09 05:18N 57°41' E 010°44'0 0.0
2014-Dec-09 04:30N 57°41' E 010°44'0 0.0
2014-Dec-09 03:30N 57°41' E 010°44'0 0.0
2014-Dec-09 02:06N 57°41' E 010°44'0 0.0
2014-Dec-09 01:21N 57°41' E 010°44'0 0.0
2014-Dec-09 00:33N 57°41' E 010°44'0 0.0
2014-Dec-08 23:33N 57°41' E 010°44'0 0.0
2014-Dec-08 22:33N 57°41' E 010°44'0 0.0
2014-Dec-08 21:33N 57°41' E 010°44'0 0.0
2014-Dec-08 20:24N 57°41' E 010°44'0 0.0
2014-Dec-08 17:33N 57°41' E 010°44'0 0.0
2014-Dec-08 14:27N 57°41' E 010°44'0 0.0
2014-Dec-08 12:30N 57°41' E 010°44'0 0.0
2014-Dec-08 11:33N 57°41' E 010°44'0 0.0
2014-Dec-08 10:30N 57°41' E 010°44'0 0.1
2014-Dec-08 09:15N 57°41' E 010°44'0 0.0
2014-Dec-08 08:30N 57°41' E 010°44'0 0.1
2014-Dec-08 05:33N 57°40' E 010°44'0 0.0
2014-Dec-08 04:33N 57°40' E 010°44'  

Dump ship's entire track history